createdAt,value
2018-11-07T00:00:18.458Z,25.13
2018-11-07T00:02:47.114Z,25.47
2018-11-07T00:05:16.965Z,23.53
2018-11-07T00:07:46.368Z,24.43
2018-11-07T00:10:14.885Z,24.23
2018-11-07T00:12:43.821Z,23.87
2018-11-07T00:15:15.162Z,25.10
2018-11-07T00:17:44.301Z,26.10
2018-11-07T00:20:13.530Z,24.97
2018-11-07T00:22:41.609Z,23.50
2018-11-07T00:25:11.787Z,23.80
2018-11-07T00:27:40.247Z,26.03
2018-11-07T00:30:09.539Z,24.30
2018-11-07T00:32:39.257Z,23.93
2018-11-07T00:35:08.552Z,24.77
2018-11-07T00:37:36.963Z,25.30
2018-11-07T00:40:05.121Z,25.20
2018-11-07T00:42:34.057Z,23.63
2018-11-07T00:45:02.223Z,24.33
2018-11-07T00:47:30.480Z,24.30
2018-11-07T00:49:58.945Z,26.10
2018-11-07T00:52:27.797Z,25.80
2018-11-07T00:54:56.417Z,25.37
2018-11-07T00:57:24.689Z,26.20
2018-11-07T00:59:52.830Z,25.80
2018-11-07T01:02:21.021Z,26.13
2018-11-07T01:04:50.169Z,26.60
2018-11-07T01:07:20.048Z,26.93
2018-11-07T01:09:48.277Z,27.33
2018-11-07T01:12:16.797Z,27.37
2018-11-07T01:14:44.893Z,27.93
2018-11-07T01:17:13.742Z,27.97
2018-11-07T01:19:43.764Z,28.53
2018-11-07T01:22:12.293Z,28.27
2018-11-07T01:24:40.997Z,27.47
2018-11-07T01:27:09.892Z,28.27
2018-11-07T01:29:38.065Z,27.80
2018-11-07T01:32:06.482Z,26.27
2018-11-07T01:34:36.186Z,28.65
2018-11-07T01:37:04.234Z,26.87
2018-11-07T01:39:33.006Z,27.75
2018-11-07T01:42:01.619Z,27.03
2018-11-07T01:44:29.642Z,29.90
2018-11-07T01:46:57.921Z,28.10
2018-11-07T01:49:27.442Z,26.93
2018-11-07T01:51:55.522Z,26.80
2018-11-07T01:54:24.347Z,26.32
2018-11-07T01:56:53.405Z,28.40
2018-11-07T01:59:21.597Z,26.57
2018-11-07T02:01:49.805Z,27.77
2018-11-07T02:04:18.990Z,26.52
2018-11-07T02:06:47.073Z,28.20
2018-11-07T02:09:15.655Z,28.30
2018-11-07T02:11:44.245Z,25.60
2018-11-07T02:14:13.574Z,26.53
2018-11-07T02:16:42.372Z,26.60
2018-11-07T02:19:12.186Z,26.13
2018-11-07T02:21:41.638Z,24.90
2018-11-07T02:24:12.084Z,25.47
2018-11-07T02:26:41.779Z,26.37
2018-11-07T02:29:13.891Z,23.67
2018-11-07T02:31:43.961Z,24.77
2018-11-07T02:34:12.965Z,24.40
2018-11-07T02:36:41.779Z,24.87
2018-11-07T02:39:15.411Z,23.50
2018-11-07T02:41:43.513Z,24.40
2018-11-07T02:44:13.561Z,24.73
2018-11-07T02:46:43.366Z,25.13
2018-11-07T02:49:12.200Z,24.20
2018-11-07T02:51:41.262Z,26.17
2018-11-07T02:54:10.845Z,24.70
2018-11-07T02:56:39.168Z,26.50
2018-11-07T02:59:07.745Z,26.10
2018-11-07T03:01:36.301Z,26.30
2018-11-07T03:04:05.816Z,27.50
2018-11-07T03:06:35.930Z,26.10
2018-11-07T03:09:06.242Z,26.77
2018-11-07T03:11:35.353Z,28.63
2018-11-07T03:14:03.955Z,30.50
2018-11-07T03:16:32.114Z,29.32
2018-11-07T03:19:00.293Z,28.63
2018-11-07T03:21:29.301Z,28.73
2018-11-07T03:23:57.598Z,30.20
2018-11-07T03:26:25.801Z,29.73
2018-11-07T03:28:54.699Z,29.50
2018-11-07T03:31:22.773Z,28.47
2018-11-07T03:33:52.534Z,27.70
2018-11-07T03:36:21.255Z,29.20
2018-11-07T03:38:49.497Z,29.87
2018-11-07T03:41:18.662Z,29.23
2018-11-07T03:43:48.097Z,28.80
2018-11-07T03:46:16.223Z,26.10
2018-11-07T03:48:44.985Z,25.27
2018-11-07T03:51:13.182Z,24.53
2018-11-07T03:53:41.614Z,26.50
2018-11-07T03:56:11.390Z,25.00
2018-11-07T03:58:39.882Z,26.23
2018-11-07T04:01:08.062Z,27.60
2018-11-07T04:03:36.485Z,26.62
2018-11-07T04:06:04.585Z,27.23
2018-11-07T04:08:33.227Z,27.87
2018-11-07T04:11:01.420Z,29.30
2018-11-07T04:13:30.430Z,28.03
2018-11-07T04:15:58.936Z,27.23
2018-11-07T04:18:27.719Z,27.97
2018-11-07T04:20:56.613Z,28.17
2018-11-07T04:23:25.383Z,28.77
2018-11-07T04:25:53.446Z,28.23
2018-11-07T04:28:22.629Z,29.27
2018-11-07T04:30:50.860Z,28.53
2018-11-07T04:33:19.970Z,29.30
2018-11-07T04:35:48.681Z,28.80
2018-11-07T04:38:16.922Z,28.60
2018-11-07T04:40:45.346Z,27.73
2018-11-07T04:43:13.585Z,29.65
2018-11-07T04:45:42.118Z,28.73
2018-11-07T04:48:10.390Z,27.87
2018-11-07T04:50:38.589Z,28.47
2018-11-07T04:53:06.690Z,28.10
2018-11-07T04:55:35.133Z,29.17
2018-11-07T04:58:03.358Z,27.40
2018-11-07T05:00:33.164Z,26.00
2018-11-07T05:03:01.662Z,26.07
2018-11-07T05:05:30.550Z,26.13
2018-11-07T05:07:58.841Z,25.33
2018-11-07T05:10:27.537Z,26.33
2018-11-07T05:12:56.570Z,25.23
2018-11-07T05:15:24.829Z,25.43
2018-11-07T05:17:52.937Z,23.87
2018-11-07T05:20:21.065Z,25.07
2018-11-07T05:22:49.332Z,24.33
2018-11-07T05:25:18.293Z,24.50
2018-11-07T05:27:47.011Z,23.07
2018-11-07T05:30:15.393Z,22.40
2018-11-07T05:32:43.688Z,23.53
2018-11-07T05:35:12.029Z,23.33
2018-11-07T05:37:40.209Z,23.33
2018-11-07T05:40:08.452Z,22.70
2018-11-07T05:42:37.547Z,24.20
2018-11-07T05:45:05.939Z,29.13
2018-11-07T05:47:34.058Z,23.55
2018-11-07T05:50:02.222Z,22.43
2018-11-07T05:52:31.134Z,25.23
2018-11-07T05:54:59.388Z,25.67
2018-11-07T05:57:27.505Z,25.00
2018-11-07T05:59:55.635Z,24.23
2018-11-07T06:02:23.961Z,24.27
2018-11-07T06:04:52.396Z,22.93
2018-11-07T06:07:21.193Z,24.57
2018-11-07T06:09:49.351Z,24.03
2018-11-07T06:12:18.153Z,24.23
2018-11-07T06:14:46.513Z,25.67
2018-11-07T06:17:15.855Z,23.47
2018-11-07T06:19:44.247Z,25.20
2018-11-07T06:22:13.264Z,25.90
2018-11-07T06:24:41.659Z,25.93
2018-11-07T06:27:09.714Z,23.97
2018-11-07T06:29:39.042Z,28.02
2018-11-07T06:32:07.130Z,25.53
2018-11-07T06:34:36.225Z,25.03
2018-11-07T06:37:05.798Z,26.97
2018-11-07T06:39:34.357Z,27.22
2018-11-07T06:42:02.505Z,26.53
2018-11-07T06:44:30.738Z,26.30
2018-11-07T06:46:59.254Z,27.07
2018-11-07T06:49:28.378Z,27.97
2018-11-07T06:51:57.033Z,25.80
2018-11-07T06:54:25.729Z,27.10
2018-11-07T06:56:54.822Z,25.63
2018-11-07T06:59:23.197Z,24.77
2018-11-07T07:01:51.774Z,25.73
2018-11-07T07:04:19.974Z,24.40
2018-11-07T07:06:48.357Z,24.93
2018-11-07T07:09:16.650Z,26.07
2018-11-07T07:11:45.311Z,26.37
2018-11-07T07:14:13.414Z,25.23
2018-11-07T07:16:41.866Z,25.43
2018-11-07T07:19:10.949Z,26.77
2018-11-07T07:21:41.242Z,24.98
2018-11-07T07:24:10.189Z,26.73
2018-11-07T07:26:38.277Z,25.97
2018-11-07T07:29:07.228Z,26.80
2018-11-07T07:31:35.851Z,26.30
2018-11-07T07:34:04.008Z,26.03
2018-11-07T07:36:32.154Z,25.23
2018-11-07T07:39:00.750Z,25.50
2018-11-07T07:41:32.698Z,25.43
2018-11-07T07:44:00.930Z,27.73
2018-11-07T07:46:29.028Z,26.87
2018-11-07T07:48:58.054Z,26.50
2018-11-07T07:51:27.453Z,27.62
2018-11-07T07:53:56.163Z,26.17
2018-11-07T07:56:24.269Z,26.55
2018-11-07T07:58:52.737Z,26.07
2018-11-07T08:01:21.861Z,26.40
2018-11-07T08:03:51.180Z,25.08
2018-11-07T08:06:20.271Z,24.80
2018-11-07T08:08:49.073Z,26.93
2018-11-07T08:11:17.974Z,24.77
2018-11-07T08:13:46.793Z,23.13
2018-11-07T08:16:15.525Z,25.17
2018-11-07T08:18:43.953Z,23.90
2018-11-07T08:21:12.271Z,24.63
2018-11-07T08:23:40.618Z,24.33
2018-11-07T08:26:09.714Z,23.83
2018-11-07T08:28:38.885Z,23.45
2018-11-07T08:31:07.059Z,24.43
2018-11-07T08:33:35.328Z,23.83
2018-11-07T08:36:03.389Z,22.63
2018-11-07T08:38:31.978Z,22.82
2018-11-07T08:41:00.138Z,23.40
2018-11-07T08:43:29.167Z,24.33
2018-11-07T08:45:57.584Z,24.27
2018-11-07T08:48:25.825Z,23.87
2018-11-07T08:50:54.938Z,24.30
2018-11-07T08:53:23.686Z,24.60
2018-11-07T08:55:52.246Z,24.97
2018-11-07T08:58:21.390Z,23.07
2018-11-07T09:00:50.091Z,23.73
2018-11-07T09:03:19.701Z,24.43
2018-11-07T09:05:47.808Z,23.83
2018-11-07T09:08:16.666Z,23.63
2018-11-07T09:10:44.997Z,23.87
2018-11-07T09:13:14.141Z,23.40
2018-11-07T09:15:42.509Z,22.65
2018-11-07T09:18:11.001Z,24.07
2018-11-07T09:20:39.530Z,24.85
2018-11-07T09:23:07.990Z,24.93
2018-11-07T09:25:36.589Z,21.60
2018-11-07T09:28:05.403Z,20.10
2018-11-07T09:30:33.739Z,20.05
2018-11-07T09:33:03.069Z,18.20
2018-11-07T09:35:31.318Z,18.37
2018-11-07T09:37:59.512Z,18.57
2018-11-07T09:40:28.893Z,16.37
2018-11-07T09:42:58.985Z,17.07
2018-11-07T09:45:27.134Z,15.80
2018-11-07T09:47:56.149Z,15.57
2018-11-07T09:50:25.409Z,16.23
2018-11-07T09:52:54.131Z,15.27
2018-11-07T09:55:22.716Z,15.10
2018-11-07T09:57:51.237Z,15.23
2018-11-07T10:00:20.437Z,14.63
2018-11-07T10:02:51.314Z,14.33
2018-11-07T10:05:21.603Z,14.73
2018-11-07T10:07:50.082Z,14.33
2018-11-07T10:10:20.908Z,13.23
2018-11-07T10:12:49.785Z,13.95
2018-11-07T10:15:18.637Z,14.70
2018-11-07T10:17:46.794Z,14.23
2018-11-07T10:20:23.347Z,14.05
2018-11-07T10:22:51.583Z,13.60
2018-11-07T10:25:20.633Z,13.95
2018-11-07T10:27:49.630Z,13.30
2018-11-07T10:30:19.205Z,13.00
2018-11-07T10:32:49.511Z,14.07
2018-11-07T10:35:18.305Z,12.78
2018-11-07T10:37:47.496Z,14.10
2018-11-07T10:40:19.290Z,12.82
2018-11-07T10:42:48.005Z,13.53
2018-11-07T10:45:16.821Z,13.62
2018-11-07T10:47:46.736Z,12.40
2018-11-07T10:50:16.544Z,13.83
2018-11-07T10:52:45.366Z,13.50
2018-11-07T10:55:14.730Z,13.90
2018-11-07T10:57:43.350Z,13.13
2018-11-07T11:00:19.285Z,13.15
2018-11-07T11:02:53.258Z,12.85
2018-11-07T11:05:21.924Z,12.43
2018-11-07T11:07:50.030Z,12.63
2018-11-07T11:10:18.645Z,11.83
2018-11-07T11:12:47.877Z,11.48
2018-11-07T11:15:17.989Z,10.98
2018-11-07T11:17:47.298Z,12.28
2018-11-07T11:20:15.633Z,11.28
2018-11-07T11:22:44.710Z,10.73
2018-11-07T11:25:13.822Z,9.73
2018-11-07T11:27:41.970Z,10.38
2018-11-07T11:30:11.598Z,9.83
2018-11-07T11:32:40.429Z,10.23
2018-11-07T11:35:10.735Z,9.75
2018-11-07T11:37:39.672Z,8.50
2018-11-07T11:40:12.310Z,8.48
2018-11-07T11:42:41.325Z,8.83
2018-11-07T11:45:12.601Z,7.58
2018-11-07T11:47:41.887Z,7.93
2018-11-07T11:50:13.071Z,8.18
2018-11-07T11:52:43.354Z,8.50
2018-11-07T11:55:12.303Z,7.92
2018-11-07T11:57:41.279Z,7.50
2018-11-07T12:00:12.833Z,7.53
2018-11-07T12:02:41.106Z,7.93
2018-11-07T12:05:10.926Z,7.57
2018-11-07T12:07:39.861Z,7.67
2018-11-07T12:10:16.293Z,7.78
2018-11-07T12:12:47.578Z,7.10
2018-11-07T12:15:17.183Z,7.73
2018-11-07T12:17:46.323Z,7.97
2018-11-07T12:20:15.202Z,8.70
2018-11-07T12:22:43.608Z,8.53
2018-11-07T12:25:12.982Z,8.07
2018-11-07T12:27:42.214Z,8.23
2018-11-07T12:30:14.367Z,8.10
2018-11-07T12:32:44.535Z,7.90
2018-11-07T12:35:15.090Z,7.03
2018-11-07T12:37:43.509Z,7.83
2018-11-07T12:40:13.065Z,7.33
2018-11-07T12:42:43.837Z,7.20
2018-11-07T12:45:13.337Z,6.85
2018-11-07T12:47:42.053Z,6.50
2018-11-07T12:50:13.505Z,6.63
2018-11-07T12:52:42.070Z,6.70
2018-11-07T12:55:11.547Z,7.63
2018-11-07T12:57:40.384Z,6.60
2018-11-07T13:00:11.290Z,7.07
2018-11-07T13:02:40.354Z,6.70
2018-11-07T13:05:09.565Z,7.23
2018-11-07T13:07:37.718Z,7.30
2018-11-07T13:10:08.671Z,6.77
2018-11-07T13:12:38.130Z,6.20
2018-11-07T13:15:08.205Z,6.47
2018-11-07T13:17:36.802Z,6.53
2018-11-07T13:20:08.981Z,6.40
2018-11-07T13:22:37.713Z,6.17
2018-11-07T13:25:07.043Z,6.53
2018-11-07T13:27:36.246Z,6.25
2018-11-07T13:30:06.301Z,5.97
2018-11-07T13:32:34.647Z,5.73
2018-11-07T13:35:03.466Z,5.73
2018-11-07T13:37:32.377Z,5.53
2018-11-07T13:40:00.373Z,5.27
2018-11-07T13:42:28.642Z,5.03
2018-11-07T13:44:57.101Z,5.03
2018-11-07T13:47:25.608Z,5.07
2018-11-07T13:49:54.410Z,5.00
2018-11-07T13:52:24.245Z,5.50
2018-11-07T13:54:53.105Z,5.33
2018-11-07T13:57:22.190Z,4.98
2018-11-07T13:59:50.265Z,5.23
2018-11-07T14:02:19.088Z,5.20
2018-11-07T14:04:47.680Z,5.20
2018-11-07T14:07:15.785Z,5.37
2018-11-07T14:09:44.397Z,5.57
2018-11-07T14:12:12.506Z,5.50
2018-11-07T14:14:40.581Z,5.40
2018-11-07T14:17:09.254Z,5.80
2018-11-07T14:19:37.713Z,5.67
2018-11-07T14:22:06.028Z,5.33
2018-11-07T14:24:34.155Z,4.67
2018-11-07T14:27:02.367Z,5.37
2018-11-07T14:29:30.558Z,5.20
2018-11-07T14:31:58.645Z,5.17
2018-11-07T14:34:28.217Z,5.60
2018-11-07T14:36:57.236Z,5.60
2018-11-07T14:39:26.019Z,5.23
2018-11-07T14:41:54.739Z,5.27
2018-11-07T14:47:05.527Z,5.83
2018-11-07T14:49:33.563Z,5.47
2018-11-07T14:52:02.000Z,5.60
2018-11-07T14:54:30.549Z,5.37
2018-11-07T14:56:58.726Z,5.10
2018-11-07T14:59:27.506Z,5.57
2018-11-07T15:01:56.257Z,5.23
2018-11-07T15:04:24.426Z,5.27
2018-11-07T15:06:52.662Z,4.70
2018-11-07T15:09:21.371Z,5.70
2018-11-07T15:11:49.640Z,5.50
2018-11-07T15:14:18.462Z,5.57
2018-11-07T15:16:47.355Z,5.43
2018-11-07T15:19:16.357Z,5.70
2018-11-07T15:21:45.023Z,5.13
2018-11-07T15:24:13.531Z,5.33
2018-11-07T15:26:41.791Z,5.43
2018-11-07T15:29:10.511Z,4.60
2018-11-07T15:31:38.646Z,5.83
2018-11-07T15:34:07.346Z,5.37
2018-11-07T15:36:35.586Z,5.20
2018-11-07T15:39:05.938Z,6.20
2018-11-07T15:41:34.986Z,5.50
2018-11-07T15:44:04.054Z,5.37
2018-11-07T15:46:32.126Z,4.97
2018-11-07T15:49:01.310Z,5.30
2018-11-07T15:51:38.289Z,5.13
2018-11-07T15:54:07.762Z,5.03
2018-11-07T15:56:36.386Z,5.65
2018-11-07T15:59:05.401Z,5.77
2018-11-07T16:01:34.765Z,5.77
2018-11-07T16:04:03.542Z,6.03
2018-11-07T16:06:31.853Z,5.45
2018-11-07T16:09:01.029Z,5.73
2018-11-07T16:11:30.751Z,6.47
2018-11-07T16:13:58.913Z,6.17
2018-11-07T16:16:27.779Z,5.77
2018-11-07T16:18:56.171Z,6.20
2018-11-07T16:21:25.187Z,6.70
2018-11-07T16:23:53.849Z,5.83
2018-11-07T16:26:22.269Z,5.53
2018-11-07T16:28:50.652Z,6.73
2018-11-07T16:31:19.402Z,6.03
2018-11-07T16:33:47.583Z,6.47
2018-11-07T16:36:16.074Z,6.40
2018-11-07T16:38:44.508Z,7.90
2018-11-07T16:41:14.016Z,9.03
2018-11-07T16:43:42.818Z,7.07
2018-11-07T16:46:11.859Z,7.43
2018-11-07T16:48:40.172Z,6.73
2018-11-07T16:51:09.741Z,6.87
2018-11-07T16:53:39.021Z,7.07
2018-11-07T16:56:08.014Z,6.60
2018-11-07T16:58:36.186Z,6.07
2018-11-07T17:01:04.526Z,6.60
2018-11-07T17:03:32.921Z,6.70
2018-11-07T17:06:02.043Z,6.53
2018-11-07T17:08:30.129Z,5.85
2018-11-07T17:10:58.266Z,6.97
2018-11-07T17:13:26.972Z,6.80
2018-11-07T17:15:55.703Z,7.37
2018-11-07T17:18:24.957Z,6.58
2018-11-07T17:20:53.358Z,7.10
2018-11-07T17:23:21.797Z,7.37
2018-11-07T17:25:50.709Z,7.37
2018-11-07T17:28:19.414Z,7.20
2018-11-07T17:30:47.529Z,7.37
2018-11-07T17:33:15.721Z,7.23
2018-11-07T17:35:44.473Z,7.53
2018-11-07T17:38:13.278Z,7.10
2018-11-07T17:40:41.730Z,8.03
2018-11-07T17:43:10.614Z,7.23
2018-11-07T17:45:39.285Z,7.50
2018-11-07T17:48:08.063Z,8.77
2018-11-07T17:50:36.566Z,7.97
2018-11-07T17:53:06.054Z,7.83
2018-11-07T17:55:34.146Z,8.38
2018-11-07T17:58:02.329Z,7.40
2018-11-07T18:00:33.058Z,8.03
2018-11-07T18:03:01.341Z,8.60
2018-11-07T18:05:30.038Z,8.00
2018-11-07T18:07:58.604Z,8.37
2018-11-07T18:10:28.050Z,8.43
2018-11-07T18:12:56.228Z,8.83
2018-11-07T18:15:26.002Z,8.73
2018-11-07T18:17:54.155Z,9.47
2018-11-07T18:20:22.553Z,8.70
2018-11-07T18:22:51.553Z,9.87
2018-11-07T18:25:19.645Z,9.53
2018-11-07T18:27:47.737Z,9.60
2018-11-07T18:30:17.989Z,9.57
2018-11-07T18:32:47.184Z,10.00
2018-11-07T18:35:16.564Z,9.83
2018-11-07T18:37:45.249Z,10.03
2018-11-07T18:40:15.138Z,9.43
2018-11-07T18:42:44.024Z,10.53
2018-11-07T18:45:13.872Z,9.37
2018-11-07T18:47:43.608Z,10.20
2018-11-07T18:50:13.938Z,9.23
2018-11-07T18:52:42.859Z,8.97
2018-11-07T18:55:13.093Z,10.07
2018-11-07T18:57:43.251Z,10.20
2018-11-07T19:00:14.446Z,9.73
2018-11-07T19:02:44.501Z,10.63
2018-11-07T19:05:12.930Z,9.67
2018-11-07T19:07:41.277Z,10.20
2018-11-07T19:10:13.117Z,10.13
2018-11-07T19:12:41.624Z,9.60
2018-11-07T19:15:11.780Z,10.77
2018-11-07T19:17:40.838Z,10.23
2018-11-07T19:20:09.980Z,10.77
2018-11-07T19:22:39.266Z,9.80
2018-11-07T19:25:09.663Z,9.77
2018-11-07T19:27:38.462Z,10.73
2018-11-07T19:30:09.936Z,9.97
2018-11-07T19:32:38.042Z,11.33
2018-11-07T19:35:08.481Z,10.57
2018-11-07T19:37:37.881Z,11.23
2018-11-07T19:40:07.790Z,11.27
2018-11-07T19:42:36.025Z,12.13
2018-11-07T19:45:05.376Z,11.30
2018-11-07T19:47:34.313Z,11.53
2018-11-07T19:50:04.711Z,11.50
2018-11-07T19:52:34.682Z,10.70
2018-11-07T19:55:03.660Z,11.83
2018-11-07T19:57:31.826Z,11.12
2018-11-07T20:00:00.557Z,9.87
2018-11-07T20:02:29.761Z,10.77
2018-11-07T20:04:57.844Z,10.60
2018-11-07T20:07:26.954Z,10.40
2018-11-07T20:09:55.075Z,9.93
2018-11-07T20:12:23.958Z,10.20
2018-11-07T20:14:52.117Z,10.10
2018-11-07T20:17:20.242Z,12.67
2018-11-07T20:19:48.954Z,12.33
2018-11-07T20:22:18.507Z,11.40
2018-11-07T20:24:46.707Z,11.73
2018-11-07T20:27:15.303Z,11.33
2018-11-07T20:29:43.645Z,12.07
2018-11-07T20:32:12.768Z,11.83
2018-11-07T20:34:41.630Z,11.30
2018-11-07T20:37:10.358Z,11.33
2018-11-07T20:39:38.813Z,11.67
2018-11-07T20:42:07.055Z,10.73
2018-11-07T20:44:36.237Z,10.98
2018-11-07T20:47:06.381Z,11.10
2018-11-07T20:49:34.916Z,11.37
2018-11-07T20:52:03.409Z,11.63
2018-11-07T20:54:32.552Z,11.73
2018-11-07T20:57:01.873Z,11.87
2018-11-07T20:59:30.037Z,11.00
2018-11-07T21:01:58.308Z,12.43
2018-11-07T21:04:27.429Z,11.47
2018-11-07T21:06:55.771Z,11.83
2018-11-07T21:09:23.893Z,11.67
2018-11-07T21:11:52.079Z,10.73
2018-11-07T21:14:20.249Z,10.90
2018-11-07T21:16:48.886Z,11.50
2018-11-07T21:19:18.311Z,10.97
2018-11-07T21:21:46.485Z,10.87
2018-11-07T21:24:16.195Z,11.43
2018-11-07T21:26:44.946Z,10.87
2018-11-07T21:29:13.543Z,10.90
2018-11-07T21:31:42.378Z,9.90
2018-11-07T21:34:10.533Z,11.27
2018-11-07T21:36:39.040Z,10.00
2018-11-07T21:39:09.573Z,9.43
2018-11-07T21:41:38.294Z,10.43
2018-11-07T21:44:06.792Z,9.23
2018-11-07T21:46:35.931Z,9.23
2018-11-07T21:49:04.846Z,9.50
2018-11-07T21:51:33.484Z,9.75
2018-11-07T21:54:02.917Z,9.67
2018-11-07T21:56:31.747Z,9.55
2018-11-07T21:59:00.766Z,9.60
2018-11-07T22:01:29.733Z,9.40
2018-11-07T22:03:58.523Z,9.60
2018-11-07T22:06:26.866Z,9.43
2018-11-07T22:08:55.725Z,10.07
2018-11-07T22:11:24.170Z,9.30
2018-11-07T22:13:52.689Z,9.97
2018-11-07T22:16:21.482Z,9.67
2018-11-07T22:18:49.714Z,10.50
2018-11-07T22:21:17.814Z,10.43
2018-11-07T22:23:46.229Z,10.30
2018-11-07T22:26:14.675Z,10.93
2018-11-07T22:28:44.050Z,10.33
2018-11-07T22:31:12.826Z,9.60
2018-11-07T22:33:41.567Z,9.67
2018-11-07T22:36:10.113Z,10.10
2018-11-07T22:38:38.919Z,9.13
2018-11-07T22:41:07.571Z,9.93
2018-11-07T22:43:36.313Z,9.70
2018-11-07T22:46:05.045Z,9.40
2018-11-07T22:48:34.654Z,9.05
2018-11-07T22:51:03.386Z,9.50
2018-11-07T22:53:32.398Z,8.93
2018-11-07T22:56:00.759Z,8.83
2018-11-07T22:58:29.611Z,10.00
2018-11-07T23:01:02.738Z,8.20
2018-11-07T23:03:32.179Z,8.30
2018-11-07T23:06:00.406Z,8.37
2018-11-07T23:08:29.095Z,8.33
2018-11-07T23:10:58.140Z,8.00
2018-11-07T23:13:27.195Z,8.45
2018-11-07T23:15:55.505Z,8.70
2018-11-07T23:18:24.222Z,8.07
2018-11-07T23:20:53.366Z,8.20
2018-11-07T23:23:21.687Z,7.90
2018-11-07T23:25:49.870Z,7.37
2018-11-07T23:28:17.967Z,7.60
2018-11-07T23:30:46.146Z,7.77
2018-11-07T23:33:15.193Z,7.07
2018-11-07T23:35:43.756Z,6.90
2018-11-07T23:38:12.155Z,7.07
2018-11-07T23:40:40.943Z,7.20
2018-11-07T23:43:10.385Z,7.03
2018-11-07T23:45:39.162Z,6.57
2018-11-07T23:48:08.925Z,6.87
2018-11-07T23:50:37.952Z,6.40
2018-11-07T23:53:06.298Z,7.10
2018-11-07T23:55:34.641Z,6.53
2018-11-07T23:58:03.122Z,6.80
